sensor_id;sensor_type;location;lat;lon;timestamp;pressure;altitude;pressure_sealevel;temperature;humidity
25084;BME280;13075;55.682;37.564;2023-04-08T00:00:21;100617.03;;;9.77;39.45
25084;BME280;13075;55.682;37.564;2023-04-08T00:02:47;100626.03;;;9.84;39.48
25084;BME280;13075;55.682;37.564;2023-04-08T00:05:12;100618.72;;;9.70;39.60
25084;BME280;13075;55.682;37.564;2023-04-08T00:07:38;100615.34;;;9.60;39.91
25084;BME280;13075;55.682;37.564;2023-04-08T00:10:03;100618.00;;;9.68;39.93
25084;BME280;13075;55.682;37.564;2023-04-08T00:12:30;100614.16;;;9.63;39.96
25084;BME280;13075;55.682;37.564;2023-04-08T00:14:56;100618.53;;;9.64;39.93
25084;BME280;13075;55.682;37.564;2023-04-08T00:17:22;100624.19;;;9.28;40.61
25084;BME280;13075;55.682;37.564;2023-04-08T00:19:47;100629.00;;;9.17;40.77
25084;BME280;13075;55.682;37.564;2023-04-08T00:22:13;100628.69;;;9.20;40.80
25084;BME280;13075;55.682;37.564;2023-04-08T00:24:38;100625.88;;;9.46;40.51
25084;BME280;13075;55.682;37.564;2023-04-08T00:27:05;100617.50;;;9.32;40.55
25084;BME280;13075;55.682;37.564;2023-04-08T00:29:30;100618.38;;;9.49;40.62
25084;BME280;13075;55.682;37.564;2023-04-08T00:31:56;100619.69;;;9.53;40.63
25084;BME280;13075;55.682;37.564;2023-04-08T00:34:22;100617.53;;;9.73;40.22
25084;BME280;13075;55.682;37.564;2023-04-08T00:36:47;100616.50;;;9.66;40.49
25084;BME280;13075;55.682;37.564;2023-04-08T00:39:13;100626.53;;;9.48;40.67
25084;BME280;13075;55.682;37.564;2023-04-08T00:41:38;100621.31;;;9.14;40.75
25084;BME280;13075;55.682;37.564;2023-04-08T00:44:04;100628.88;;;9.26;41.09
25084;BME280;13075;55.682;37.564;2023-04-08T00:46:30;100625.38;;;9.26;41.16
25084;BME280;13075;55.682;37.564;2023-04-08T00:49:00;100620.88;;;9.26;41.34
25084;BME280;13075;55.682;37.564;2023-04-08T00:51:27;100620.03;;;9.26;40.94
25084;BME280;13075;55.682;37.564;2023-04-08T00:53:53;100624.69;;;9.40;41.03
25084;BME280;13075;55.682;37.564;2023-04-08T00:56:19;100621.53;;;9.61;40.57
25084;BME280;13075;55.682;37.564;2023-04-08T00:58:46;100623.50;;;9.34;41.42
25084;BME280;13075;55.682;37.564;2023-04-08T01:01:13;100631.19;;;9.21;41.54
25084;BME280;13075;55.682;37.564;2023-04-08T01:03:49;100620.34;;;9.55;40.90
25084;BME280;13075;55.682;37.564;2023-04-08T01:08:45;100617.69;;;9.71;40.71
25084;BME280;13075;55.682;37.564;2023-04-08T01:11:12;100619.69;;;9.69;40.83
25084;BME280;13075;55.682;37.564;2023-04-08T01:13:39;100617.69;;;9.63;40.95
25084;BME280;13075;55.682;37.564;2023-04-08T01:16:05;100620.88;;;9.67;40.81
25084;BME280;13075;55.682;37.564;2023-04-08T01:18:32;100619.50;;;9.14;41.62
25084;BME280;13075;55.682;37.564;2023-04-08T01:20:59;100625.88;;;9.37;41.46
25084;BME280;13075;55.682;37.564;2023-04-08T01:25:52;100621.88;;;9.33;41.80
25084;BME280;13075;55.682;37.564;2023-04-08T01:28:18;100625.84;;;9.21;41.87
25084;BME280;13075;55.682;37.564;2023-04-08T01:30:45;100626.19;;;9.43;41.70
25084;BME280;13075;55.682;37.564;2023-04-08T01:33:12;100617.72;;;9.47;41.68
25084;BME280;13075;55.682;37.564;2023-04-08T01:35:39;100621.03;;;9.41;41.89
25084;BME280;13075;55.682;37.564;2023-04-08T01:38:08;100623.50;;;9.34;41.94
25084;BME280;13075;55.682;37.564;2023-04-08T01:40:36;100623.84;;;9.15;42.41
25084;BME280;13075;55.682;37.564;2023-04-08T01:43:02;100623.63;;;8.93;42.52
25084;BME280;13075;55.682;37.564;2023-04-08T01:45:29;100628.03;;;9.26;42.53
25084;BME280;13075;55.682;37.564;2023-04-08T01:47:55;100619.34;;;9.16;42.29
25084;BME280;13075;55.682;37.564;2023-04-08T01:50:21;100629.97;;;8.92;42.78
25084;BME280;13075;55.682;37.564;2023-04-08T01:52:48;100618.75;;;8.72;43.34
25084;BME280;13075;55.682;37.564;2023-04-08T01:55:14;100620.63;;;8.88;43.18
25084;BME280;13075;55.682;37.564;2023-04-08T01:57:40;100620.28;;;8.83;43.24
25084;BME280;13075;55.682;37.564;2023-04-08T02:00:07;100628.88;;;9.18;42.78
25084;BME280;13075;55.682;37.564;2023-04-08T02:02:52;100629.53;;;9.20;42.69
25084;BME280;13075;55.682;37.564;2023-04-08T02:05:19;100626.50;;;9.15;42.86
25084;BME280;13075;55.682;37.564;2023-04-08T02:07:46;100624.31;;;8.95;43.29
25084;BME280;13075;55.682;37.564;2023-04-08T02:10:11;100623.69;;;9.25;43.00
25084;BME280;13075;55.682;37.564;2023-04-08T02:12:37;100625.63;;;8.99;43.43
25084;BME280;13075;55.682;37.564;2023-04-08T02:15:08;100625.16;;;9.11;42.97
25084;BME280;13075;55.682;37.564;2023-04-08T02:22:30;100629.41;;;8.80;43.49
25084;BME280;13075;55.682;37.564;2023-04-08T02:24:56;100626.28;;;9.01;43.53
25084;BME280;13075;55.682;37.564;2023-04-08T02:27:23;100626.38;;;8.75;43.89
25084;BME280;13075;55.682;37.564;2023-04-08T02:29:50;100633.69;;;8.65;44.18
25084;BME280;13075;55.682;37.564;2023-04-08T02:32:17;100634.41;;;8.67;44.36
25084;BME280;13075;55.682;37.564;2023-04-08T02:34:44;100629.50;;;8.62;44.38
25084;BME280;13075;55.682;37.564;2023-04-08T02:37:10;100642.72;;;8.64;44.28
25084;BME280;13075;55.682;37.564;2023-04-08T02:39:36;100637.63;;;8.87;43.98
25084;BME280;13075;55.682;37.564;2023-04-08T02:42:02;100640.78;;;8.82;43.95
25084;BME280;13075;55.682;37.564;2023-04-08T02:44:28;100646.44;;;8.79;44.01
25084;BME280;13075;55.682;37.564;2023-04-08T02:46:53;100649.53;;;8.58;44.47
25084;BME280;13075;55.682;37.564;2023-04-08T02:49:18;100638.47;;;8.87;44.14
25084;BME280;13075;55.682;37.564;2023-04-08T02:51:44;100639.50;;;9.02;44.01
25084;BME280;13075;55.682;37.564;2023-04-08T02:54:09;100647.81;;;8.99;43.81
25084;BME280;13075;55.682;37.564;2023-04-08T02:56:35;100641.50;;;9.00;44.03
25084;BME280;13075;55.682;37.564;2023-04-08T02:59:00;100649.38;;;9.18;43.76
25084;BME280;13075;55.682;37.564;2023-04-08T03:01:26;100640.81;;;9.06;43.84
25084;BME280;13075;55.682;37.564;2023-04-08T03:03:51;100636.50;;;9.05;43.99
25084;BME280;13075;55.682;37.564;2023-04-08T03:06:17;100642.19;;;9.10;43.90
25084;BME280;13075;55.682;37.564;2023-04-08T03:08:42;100644.63;;;8.96;44.74
25084;BME280;13075;55.682;37.564;2023-04-08T03:11:08;100644.63;;;8.96;44.34
25084;BME280;13075;55.682;37.564;2023-04-08T03:13:33;100647.31;;;8.96;44.26
25084;BME280;13075;55.682;37.564;2023-04-08T03:15:59;100645.44;;;8.88;44.53
25084;BME280;13075;55.682;37.564;2023-04-08T03:18:25;100643.47;;;8.98;44.39
25084;BME280;13075;55.682;37.564;2023-04-08T03:20:50;100652.56;;;8.71;44.82
25084;BME280;13075;55.682;37.564;2023-04-08T03:23:16;100649.06;;;9.21;44.33
25084;BME280;13075;55.682;37.564;2023-04-08T03:25:41;100655.41;;;9.28;44.02
25084;BME280;13075;55.682;37.564;2023-04-08T03:28:07;100644.19;;;9.24;44.05
25084;BME280;13075;55.682;37.564;2023-04-08T03:30:32;100654.19;;;9.14;44.06
25084;BME280;13075;55.682;37.564;2023-04-08T03:32:58;100652.03;;;9.10;44.65
25084;BME280;13075;55.682;37.564;2023-04-08T03:35:23;100648.06;;;9.38;43.90
25084;BME280;13075;55.682;37.564;2023-04-08T03:37:48;100652.88;;;9.18;44.05
25084;BME280;13075;55.682;37.564;2023-04-08T03:40:14;100652.94;;;9.59;43.35
25084;BME280;13075;55.682;37.564;2023-04-08T03:42:39;100653.22;;;9.23;43.72
25084;BME280;13075;55.682;37.564;2023-04-08T03:45:05;100655.41;;;9.60;43.43
25084;BME280;13075;55.682;37.564;2023-04-08T03:47:31;100654.09;;;9.80;43.21
25084;BME280;13075;55.682;37.564;2023-04-08T03:49:56;100655.00;;;9.07;44.25
25084;BME280;13075;55.682;37.564;2023-04-08T03:52:22;100658.22;;;9.10;44.22
25084;BME280;13075;55.682;37.564;2023-04-08T03:54:48;100659.59;;;9.38;44.17
25084;BME280;13075;55.682;37.564;2023-04-08T03:57:13;100652.25;;;9.81;43.30
25084;BME280;13075;55.682;37.564;2023-04-08T03:59:39;100659.44;;;9.64;43.67
25084;BME280;13075;55.682;37.564;2023-04-08T04:02:05;100658.25;;;10.15;42.78
25084;BME280;13075;55.682;37.564;2023-04-08T04:04:30;100651.09;;;9.75;43.36
25084;BME280;13075;55.682;37.564;2023-04-08T04:06:56;100656.44;;;9.51;43.46
25084;BME280;13075;55.682;37.564;2023-04-08T04:09:21;100664.00;;;8.98;44.53
25084;BME280;13075;55.682;37.564;2023-04-08T04:11:47;100664.59;;;9.42;44.07
25084;BME280;13075;55.682;37.564;2023-04-08T04:14:12;100650.41;;;10.06;43.35
25084;BME280;13075;55.682;37.564;2023-04-08T04:16:38;100662.13;;;10.68;42.56
25084;BME280;13075;55.682;37.564;2023-04-08T04:19:03;100651.19;;;12.21;39.50
25084;BME280;13075;55.682;37.564;2023-04-08T04:21:29;100644.44;;;12.69;38.65
25084;BME280;13075;55.682;37.564;2023-04-08T04:23:54;100655.34;;;13.33;37.60
25084;BME280;13075;55.682;37.564;2023-04-08T04:26:20;100650.38;;;12.50;38.16
25084;BME280;13075;55.682;37.564;2023-04-08T04:28:45;100655.72;;;12.50;38.74
25084;BME280;13075;55.682;37.564;2023-04-08T04:31:18;100649.38;;;14.01;36.68
25084;BME280;13075;55.682;37.564;2023-04-08T04:33:44;100645.38;;;14.93;35.60
25084;BME280;13075;55.682;37.564;2023-04-08T04:36:09;100652.03;;;14.97;34.75
25084;BME280;13075;55.682;37.564;2023-04-08T04:38:35;100648.72;;;16.28;33.16
25084;BME280;13075;55.682;37.564;2023-04-08T04:41:01;100648.88;;;16.65;32.41
25084;BME280;13075;55.682;37.564;2023-04-08T04:43:26;100654.94;;;15.56;33.62
25084;BME280;13075;55.682;37.564;2023-04-08T04:45:52;100656.19;;;14.59;35.14
25084;BME280;13075;55.682;37.564;2023-04-08T04:48:17;100659.56;;;14.12;35.87
25084;BME280;13075;55.682;37.564;2023-04-08T04:50:43;100658.34;;;15.24;35.21
25084;BME280;13075;55.682;37.564;2023-04-08T04:53:08;100644.75;;;18.87;30.64
25084;BME280;13075;55.682;37.564;2023-04-08T04:55:34;100651.28;;;20.28;28.91
25084;BME280;13075;55.682;37.564;2023-04-08T04:57:59;100647.22;;;20.77;28.28
25084;BME280;13075;55.682;37.564;2023-04-08T05:00:25;100649.09;;;21.28;27.38
25084;BME280;13075;55.682;37.564;2023-04-08T05:02:51;100640.34;;;20.63;28.06
25084;BME280;13075;55.682;37.564;2023-04-08T05:05:16;100653.25;;;20.56;27.96
25084;BME280;13075;55.682;37.564;2023-04-08T05:07:42;100643.41;;;22.79;25.84
25084;BME280;13075;55.682;37.564;2023-04-08T05:10:07;100651.19;;;22.65;25.55
25084;BME280;13075;55.682;37.564;2023-04-08T05:12:33;100646.06;;;23.92;25.18
25084;BME280;13075;55.682;37.564;2023-04-08T05:14:58;100643.16;;;25.60;23.78
25084;BME280;13075;55.682;37.564;2023-04-08T05:17:24;100652.84;;;24.16;23.63
25084;BME280;13075;55.682;37.564;2023-04-08T05:19:50;100655.28;;;24.13;24.24
25084;BME280;13075;55.682;37.564;2023-04-08T05:22:17;100651.75;;;23.32;24.85
25084;BME280;13075;55.682;37.564;2023-04-08T05:24:43;100650.28;;;24.42;23.91
25084;BME280;13075;55.682;37.564;2023-04-08T05:27:08;100658.66;;;24.67;24.02
25084;BME280;13075;55.682;37.564;2023-04-08T05:29:33;100663.69;;;23.80;24.51
25084;BME280;13075;55.682;37.564;2023-04-08T05:31:59;100671.38;;;22.86;25.39
25084;BME280;13075;55.682;37.564;2023-04-08T05:34:25;100652.22;;;25.75;23.29
25084;BME280;13075;55.682;37.564;2023-04-08T05:36:50;100658.09;;;28.30;21.24
25084;BME280;13075;55.682;37.564;2023-04-08T05:39:17;100648.47;;;28.85;20.39
25084;BME280;13075;55.682;37.564;2023-04-08T05:41:42;100646.13;;;27.38;21.17
25084;BME280;13075;55.682;37.564;2023-04-08T05:44:08;100662.03;;;23.74;23.96
25084;BME280;13075;55.682;37.564;2023-04-08T05:46:34;100666.19;;;21.96;25.99
25084;BME280;13075;55.682;37.564;2023-04-08T05:48:59;100669.63;;;21.63;26.24
25084;BME280;13075;55.682;37.564;2023-04-08T05:51:25;100657.22;;;22.89;25.36
25084;BME280;13075;55.682;37.564;2023-04-08T05:53:51;100655.06;;;27.00;22.26
25084;BME280;13075;55.682;37.564;2023-04-08T05:56:16;100665.59;;;27.86;21.59
25084;BME280;13075;55.682;37.564;2023-04-08T05:58:41;100661.91;;;28.63;20.66
25084;BME280;13075;55.682;37.564;2023-04-08T06:01:07;100649.66;;;29.40;20.17
25084;BME280;13075;55.682;37.564;2023-04-08T06:03:32;100654.16;;;30.83;19.06
25084;BME280;13075;55.682;37.564;2023-04-08T06:05:58;100645.97;;;34.42;17.06
25084;BME280;13075;55.682;37.564;2023-04-08T06:08:23;100639.53;;;36.54;15.68
25084;BME280;13075;55.682;37.564;2023-04-08T06:10:50;100644.16;;;36.50;15.67
25084;BME280;13075;55.682;37.564;2023-04-08T06:13:15;100634.16;;;36.73;15.24
25084;BME280;13075;55.682;37.564;2023-04-08T06:15:41;100645.31;;;35.83;15.73
25084;BME280;13075;55.682;37.564;2023-04-08T06:18:07;100643.81;;;30.75;18.43
25084;BME280;13075;55.682;37.564;2023-04-08T06:20:32;100645.66;;;26.12;21.79
25084;BME280;13075;55.682;37.564;2023-04-08T06:22:57;100652.94;;;27.90;21.53
25084;BME280;13075;55.682;37.564;2023-04-08T06:25:23;100644.31;;;30.77;19.34
25084;BME280;13075;55.682;37.564;2023-04-08T06:27:49;100634.72;;;33.28;17.56
25084;BME280;13075;55.682;37.564;2023-04-08T06:30:14;100640.97;;;35.74;16.09
25084;BME280;13075;55.682;37.564;2023-04-08T06:32:40;100644.97;;;37.87;15.09
25084;BME280;13075;55.682;37.564;2023-04-08T06:35:06;100634.09;;;36.24;15.51
25084;BME280;13075;55.682;37.564;2023-04-08T06:37:32;100637.53;;;31.38;18.16
25084;BME280;13075;55.682;37.564;2023-04-08T06:39:58;100634.91;;;34.00;16.67
25084;BME280;13075;55.682;37.564;2023-04-08T06:42:23;100635.28;;;34.62;16.37
25084;BME280;13075;55.682;37.564;2023-04-08T06:45:06;100647.16;;;31.40;17.60
25084;BME280;13075;55.682;37.564;2023-04-08T06:47:31;100645.44;;;30.63;18.06
25084;BME280;13075;55.682;37.564;2023-04-08T06:49:57;100642.69;;;31.67;17.67
25084;BME280;13075;55.682;37.564;2023-04-08T06:52:23;100648.19;;;32.55;17.42
25084;BME280;13075;55.682;37.564;2023-04-08T06:54:49;100639.22;;;33.63;16.79
25084;BME280;13075;55.682;37.564;2023-04-08T06:57:14;100645.75;;;34.56;16.11
25084;BME280;13075;55.682;37.564;2023-04-08T06:59:40;100648.22;;;35.45;15.75
25084;BME280;13075;55.682;37.564;2023-04-08T07:02:05;100654.19;;;33.53;17.01
25084;BME280;13075;55.682;37.564;2023-04-08T07:04:31;100634.09;;;35.50;15.54
25084;BME280;13075;55.682;37.564;2023-04-08T07:06:56;100635.41;;;35.53;15.61
25084;BME280;13075;55.682;37.564;2023-04-08T07:09:22;100634.97;;;37.46;14.62
25084;BME280;13075;55.682;37.564;2023-04-08T07:11:47;100631.06;;;36.74;15.08
25084;BME280;13075;55.682;37.564;2023-04-08T07:14:12;100629.00;;;40.20;13.36
25084;BME280;13075;55.682;37.564;2023-04-08T07:16:38;100625.50;;;40.27;13.26
25084;BME280;13075;55.682;37.564;2023-04-08T07:19:03;100620.09;;;43.40;11.66
25084;BME280;13075;55.682;37.564;2023-04-08T07:21:29;100614.06;;;45.82;10.84
25084;BME280;13075;55.682;37.564;2023-04-08T07:23:55;100616.59;;;46.31;10.77
25084;BME280;13075;55.682;37.564;2023-04-08T07:26:21;100619.31;;;45.87;10.55
25084;BME280;13075;55.682;37.564;2023-04-08T07:28:46;100617.59;;;40.78;13.06
25084;BME280;13075;55.682;37.564;2023-04-08T07:31:15;100606.88;;;43.52;11.86
25084;BME280;13075;55.682;37.564;2023-04-08T07:33:41;100616.81;;;42.30;11.83
25084;BME280;13075;55.682;37.564;2023-04-08T07:36:07;100609.13;;;39.68;12.93
25084;BME280;13075;55.682;37.564;2023-04-08T07:38:33;100607.78;;;39.43;13.27
25084;BME280;13075;55.682;37.564;2023-04-08T07:40:59;100613.16;;;38.50;13.62
25084;BME280;13075;55.682;37.564;2023-04-08T07:43:25;100614.00;;;35.98;14.80
25084;BME280;13075;55.682;37.564;2023-04-08T07:45:50;100614.13;;;34.23;15.80
25084;BME280;13075;55.682;37.564;2023-04-08T07:48:16;100623.03;;;32.21;17.03
25084;BME280;13075;55.682;37.564;2023-04-08T07:50:41;100627.53;;;30.60;18.50
25084;BME280;13075;55.682;37.564;2023-04-08T07:53:07;100624.31;;;31.35;18.13
25084;BME280;13075;55.682;37.564;2023-04-08T07:55:32;100616.06;;;31.08;18.41
25084;BME280;13075;55.682;37.564;2023-04-08T07:57:58;100631.69;;;31.26;18.27
25084;BME280;13075;55.682;37.564;2023-04-08T08:00:24;100624.97;;;31.90;17.05
25084;BME280;13075;55.682;37.564;2023-04-08T08:02:49;100626.22;;;30.25;18.36
25084;BME280;13075;55.682;37.564;2023-04-08T08:05:15;100628.16;;;32.28;17.55
25084;BME280;13075;55.682;37.564;2023-04-08T08:07:40;100625.84;;;31.99;17.55
25084;BME280;13075;55.682;37.564;2023-04-08T08:10:06;100627.38;;;32.67;17.28
25084;BME280;13075;55.682;37.564;2023-04-08T08:12:31;100625.94;;;32.16;17.16
25084;BME280;13075;55.682;37.564;2023-04-08T08:14:57;100617.16;;;33.83;16.44
25084;BME280;13075;55.682;37.564;2023-04-08T08:17:23;100615.91;;;35.03;15.87
25084;BME280;13075;55.682;37.564;2023-04-08T08:19:49;100613.16;;;32.29;17.23
25084;BME280;13075;55.682;37.564;2023-04-08T08:22:15;100619.53;;;29.06;19.37
25084;BME280;13075;55.682;37.564;2023-04-08T08:24:40;100616.97;;;27.42;20.67
25084;BME280;13075;55.682;37.564;2023-04-08T08:27:09;100624.56;;;24.85;22.86
25084;BME280;13075;55.682;37.564;2023-04-08T08:29:34;100628.66;;;24.40;23.54
25084;BME280;13075;55.682;37.564;2023-04-08T08:32:01;100624.78;;;23.14;24.84
25084;BME280;13075;55.682;37.564;2023-04-08T08:34:28;100619.84;;;22.51;26.21
25084;BME280;13075;55.682;37.564;2023-04-08T08:36:53;100627.59;;;22.04;26.34
25084;BME280;13075;55.682;37.564;2023-04-08T08:39:18;100619.00;;;22.51;26.06
25084;BME280;13075;55.682;37.564;2023-04-08T08:41:44;100620.50;;;22.03;25.77
25084;BME280;13075;55.682;37.564;2023-04-08T08:44:10;100615.66;;;21.44;26.47
25084;BME280;13075;55.682;37.564;2023-04-08T08:46:36;100605.13;;;21.97;26.01
25084;BME280;13075;55.682;37.564;2023-04-08T08:49:05;100623.34;;;20.21;27.42
25084;BME280;13075;55.682;37.564;2023-04-08T08:51:30;100612.47;;;22.52;26.27
25084;BME280;13075;55.682;37.564;2023-04-08T08:53:56;100615.25;;;24.02;25.09
25084;BME280;13075;55.682;37.564;2023-04-08T08:56:22;100601.97;;;23.04;24.91
25084;BME280;13075;55.682;37.564;2023-04-08T08:58:47;100611.97;;;24.00;24.15
25084;BME280;13075;55.682;37.564;2023-04-08T09:01:32;100609.22;;;24.00;24.55
25084;BME280;13075;55.682;37.564;2023-04-08T09:04:14;100616.75;;;23.08;24.26
25084;BME280;13075;55.682;37.564;2023-04-08T09:06:41;100623.88;;;23.57;23.71
25084;BME280;13075;55.682;37.564;2023-04-08T09:09:07;100614.81;;;22.43;24.82
25084;BME280;13075;55.682;37.564;2023-04-08T09:11:35;100610.78;;;21.79;25.36
25084;BME280;13075;55.682;37.564;2023-04-08T09:14:02;100616.31;;;21.51;25.66
25084;BME280;13075;55.682;37.564;2023-04-08T09:16:27;100609.06;;;20.88;26.26
25084;BME280;13075;55.682;37.564;2023-04-08T09:18:55;100621.94;;;18.94;27.80
25084;BME280;13075;55.682;37.564;2023-04-08T09:21:32;100607.53;;;19.23;28.16
25084;BME280;13075;55.682;37.564;2023-04-08T09:23:59;100620.34;;;18.87;28.28
25084;BME280;13075;55.682;37.564;2023-04-08T09:26:24;100612.81;;;18.10;29.21
25084;BME280;13075;55.682;37.564;2023-04-08T09:31:23;100624.50;;;19.90;27.66
25084;BME280;13075;55.682;37.564;2023-04-08T09:33:50;100623.78;;;19.71;27.50
25084;BME280;13075;55.682;37.564;2023-04-08T09:36:18;100619.72;;;20.27;26.75
25084;BME280;13075;55.682;37.564;2023-04-08T09:38:43;100624.78;;;21.38;25.68
25084;BME280;13075;55.682;37.564;2023-04-08T09:41:11;100608.88;;;21.63;25.48
25084;BME280;13075;55.682;37.564;2023-04-08T09:43:41;100603.06;;;21.26;25.86
25084;BME280;13075;55.682;37.564;2023-04-08T09:46:08;100610.81;;;20.55;26.77
25084;BME280;13075;55.682;37.564;2023-04-08T09:48:38;100605.00;;;19.70;27.01
25084;BME280;13075;55.682;37.564;2023-04-08T09:51:04;100610.16;;;19.48;27.76
25084;BME280;13075;55.682;37.564;2023-04-08T09:53:34;100596.47;;;20.82;27.00
25084;BME280;13075;55.682;37.564;2023-04-08T09:56:01;100621.22;;;20.11;27.30
25084;BME280;13075;55.682;37.564;2023-04-08T09:58:33;100609.91;;;20.89;26.94
25084;BME280;13075;55.682;37.564;2023-04-08T10:01:03;100592.59;;;21.35;25.91
25084;BME280;13075;55.682;37.564;2023-04-08T10:03:51;100604.25;;;21.63;25.65
25084;BME280;13075;55.682;37.564;2023-04-08T10:06:15;100598.19;;;21.73;25.52
25084;BME280;13075;55.682;37.564;2023-04-08T10:08:41;100602.06;;;20.52;26.59
25084;BME280;13075;55.682;37.564;2023-04-08T10:11:07;100615.28;;;19.08;28.16
25084;BME280;13075;55.682;37.564;2023-04-08T10:13:32;100610.72;;;19.20;28.46
25084;BME280;13075;55.682;37.564;2023-04-08T10:16:17;100606.56;;;18.88;28.95
25084;BME280;13075;55.682;37.564;2023-04-08T10:18:43;100601.94;;;18.16;29.53
25084;BME280;13075;55.682;37.564;2023-04-08T10:24:09;100589.81;;;19.09;29.10
25084;BME280;13075;55.682;37.564;2023-04-08T10:26:36;100603.59;;;19.08;29.28
25084;BME280;13075;55.682;37.564;2023-04-08T10:31:42;100591.47;;;18.62;29.27
25084;BME280;13075;55.682;37.564;2023-04-08T10:34:49;100596.44;;;18.23;29.81
25084;BME280;13075;55.682;37.564;2023-04-08T10:37:00;100585.16;;;18.08;30.24
25084;BME280;13075;55.682;37.564;2023-04-08T10:39:26;100599.88;;;17.93;30.75
25084;BME280;13075;55.682;37.564;2023-04-08T10:41:51;100589.69;;;18.32;30.67
25084;BME280;13075;55.682;37.564;2023-04-08T10:44:21;100593.75;;;17.49;31.78
25084;BME280;13075;55.682;37.564;2023-04-08T10:46:47;100585.38;;;17.81;31.52
25084;BME280;13075;55.682;37.564;2023-04-08T10:49:13;100593.19;;;17.02;32.17
25084;BME280;13075;55.682;37.564;2023-04-08T10:51:39;100581.06;;;17.18;32.22
25084;BME280;13075;55.682;37.564;2023-04-08T10:54:06;100579.81;;;17.45;31.83
25084;BME280;13075;55.682;37.564;2023-04-08T10:56:32;100574.69;;;17.06;32.32
25084;BME280;13075;55.682;37.564;2023-04-08T10:58:58;100563.56;;;17.76;31.55
25084;BME280;13075;55.682;37.564;2023-04-08T11:01:24;100580.25;;;17.98;32.08
25084;BME280;13075;55.682;37.564;2023-04-08T11:03:49;100575.47;;;17.44;32.12
25084;BME280;13075;55.682;37.564;2023-04-08T11:06:15;100571.09;;;17.74;31.71
25084;BME280;13075;55.682;37.564;2023-04-08T11:08:41;100553.56;;;17.77;32.01
25084;BME280;13075;55.682;37.564;2023-04-08T11:11:09;100559.25;;;17.69;31.72
25084;BME280;13075;55.682;37.564;2023-04-08T11:13:39;100544.38;;;18.02;31.41
25084;BME280;13075;55.682;37.564;2023-04-08T11:16:06;100541.81;;;18.26;30.87
25084;BME280;13075;55.682;37.564;2023-04-08T11:18:39;100551.66;;;18.02;31.08
25084;BME280;13075;55.682;37.564;2023-04-08T11:21:08;100549.88;;;17.40;31.47
25084;BME280;13075;55.682;37.564;2023-04-08T11:23:34;100546.41;;;18.07;30.14
25084;BME280;13075;55.682;37.564;2023-04-08T11:26:00;100545.44;;;17.77;30.63
25084;BME280;13075;55.682;37.564;2023-04-08T11:28:25;100547.94;;;18.39;30.19
25084;BME280;13075;55.682;37.564;2023-04-08T11:30:52;100559.81;;;16.83;32.05
25084;BME280;13075;55.682;37.564;2023-04-08T11:33:18;100561.78;;;17.08;31.80
25084;BME280;13075;55.682;37.564;2023-04-08T11:35:44;100548.41;;;17.44;31.61
25084;BME280;13075;55.682;37.564;2023-04-08T11:38:10;100555.00;;;17.23;31.85
25084;BME280;13075;55.682;37.564;2023-04-08T11:40:36;100544.78;;;17.81;31.98
25084;BME280;13075;55.682;37.564;2023-04-08T11:43:08;100529.41;;;18.00;31.85
25084;BME280;13075;55.682;37.564;2023-04-08T11:45:37;100535.06;;;18.35;31.17
25084;BME280;13075;55.682;37.564;2023-04-08T11:48:07;100552.22;;;17.36;32.27
25084;BME280;13075;55.682;37.564;2023-04-08T11:50:33;100533.63;;;17.96;31.95
25084;BME280;13075;55.682;37.564;2023-04-08T11:52:58;100525.25;;;17.97;32.11
25084;BME280;13075;55.682;37.564;2023-04-08T11:55:24;100530.91;;;17.71;32.62
25084;BME280;13075;55.682;37.564;2023-04-08T11:57:51;100537.28;;;17.27;33.33
25084;BME280;13075;55.682;37.564;2023-04-08T12:00:17;100527.88;;;17.36;32.94
25084;BME280;13075;55.682;37.564;2023-04-08T12:02:43;100521.72;;;17.97;32.40
25084;BME280;13075;55.682;37.564;2023-04-08T12:05:08;100520.09;;;18.32;32.01
25084;BME280;13075;55.682;37.564;2023-04-08T12:07:34;100530.66;;;16.92;33.50
25084;BME280;13075;55.682;37.564;2023-04-08T12:09:59;100530.22;;;16.44;33.83
25084;BME280;13075;55.682;37.564;2023-04-08T12:12:25;100527.31;;;16.97;33.52
25084;BME280;13075;55.682;37.564;2023-04-08T12:14:51;100522.22;;;17.13;33.37
25084;BME280;13075;55.682;37.564;2023-04-08T12:17:16;100512.34;;;17.25;32.94
25084;BME280;13075;55.682;37.564;2023-04-08T12:19:42;100508.94;;;17.86;32.41
25084;BME280;13075;55.682;37.564;2023-04-08T12:22:07;100511.03;;;18.02;32.49
25084;BME280;13075;55.682;37.564;2023-04-08T12:24:32;100512.09;;;17.83;33.19
25084;BME280;13075;55.682;37.564;2023-04-08T12:26:58;100524.19;;;16.93;33.76
25084;BME280;13075;55.682;37.564;2023-04-08T12:29:23;100506.19;;;16.80;34.16
25084;BME280;13075;55.682;37.564;2023-04-08T12:31:49;100506.59;;;17.40;33.77
25084;BME280;13075;55.682;37.564;2023-04-08T12:34:14;100507.47;;;17.83;33.37
25084;BME280;13075;55.682;37.564;2023-04-08T12:36:41;100500.19;;;18.20;32.95
25084;BME280;13075;55.682;37.564;2023-04-08T12:39:07;100504.34;;;18.41;32.78
25084;BME280;13075;55.682;37.564;2023-04-08T12:41:32;100499.00;;;18.34;32.41
25084;BME280;13075;55.682;37.564;2023-04-08T12:43:58;100493.78;;;17.78;33.29
25084;BME280;13075;55.682;37.564;2023-04-08T12:46:23;100497.56;;;17.28;33.84
25084;BME280;13075;55.682;37.564;2023-04-08T12:48:49;100497.78;;;18.30;32.91
25084;BME280;13075;55.682;37.564;2023-04-08T12:51:14;100489.50;;;18.25;32.85
25084;BME280;13075;55.682;37.564;2023-04-08T12:53:39;100492.44;;;18.42;32.45
25084;BME280;13075;55.682;37.564;2023-04-08T12:56:05;100490.34;;;18.26;32.99